Portada
METAR-TAF:

METAR-TAF

Aeropuertos :

Weno, Micronesia

Aeropuerto Internacional de Chuuk

latitud: 07-28N, longitud: 151-51E, altitud: 3 m

Observación

El informe se hizo hace 28 minutos, a las 14:55 UTC
Viento 12 kt del este-noreste
Temperatura 27°C
Humedad 89%
Presión 1006 hPa
Visibilidad: 22.5 km
Nubes dispersas a una altura de 1200 ft, Cumulonimbus.
Cielo cubierto a una altura de 12000 ft

METAR: PTKK 201455Z 06012KT 14SM SCT012CB OVC120 27/25 A2971 RMK SHRAB18E35 CB ALQDS MOV SW SLP062 60013 8/32/ T02670252 57017

Hora: 01:23 (15:23 UTC)

Pronóstico

El informe se hizo hace 3 horas y 45 minutos, a las 11:38 UTC
Pronóstico válido del 20 a las 12 UTC al 21 a las 12 UTC
Viento 5 kt con dirección variable
Visibilidad: 10 km
Escasas nubes a una altura de 1400 ft
Nubes dispersas a una altura de 4000 ft
Cielo nuboso a una altura de 12000 ft
chaparrones en las proximidades

TAF: PTKK 201138Z 2012/2112 VRB05KT P6SM VCSH FEW014 SCT040 BKN120

Observaciones y pronósticos meteorológicos de más de 4000 aeropuertos (mensajes METAR y TAF).

Los puntos amarillos y rojos representan las estaciones disponibles.

Ponga el ratón en el punto deseado para ver el nombre de la estación.

Haga clic para ver las observaciones y los pronósticos meteorológicos.

Para cambiar el mapa : haga clic en los botones verdes con una cruz de color negro para hacer un zoom, en el botón verde con un guión para alejar o en las flechas verdes para mapas adyacentes.


METAR-TAF: